HOURLY OBS INDEX

062

Central Tablelands - north

MUDGEE AIRPORT AWS

Site: 062101
Alt: 471.0m
4km NE of MUDGEE


  Time     Wind        Temp  DP   Baro     Rain since   Rain past  Vis(m), Cloud(base in m), Weather
  local        km/h                         9am  last   hr   10m    
Tue 14:00    N 17/ 32  28.9 19.8  1009.3    0.2   0.0   0.0   0.0   10000|SC1050 
Tue 14:30    N 13/ 24  29.5 20.1  1009.2    0.2   0.0   0.0   0.0   10000|BR1170 
Tue 15:00  NNW 17/ 24  29.7 20.5  1008.6    0.2   0.0   0.0   0.0   10000|SC1230 SC1440 
Tue 15:30    N 19/ 28  29.7 20.0  1007.9    0.2   0.0   0.0   0.0   10000|SC1230 
Tue 16:00    N 20/ 33  29.8 19.8  1007.6    0.2   0.0   0.0   0.0   10000|SC1290 BR1530 
Tue 16:30    N 17/ 28  29.5 20.4  1007.3    0.2   0.0   0.0   0.0   10000|SC1260 SC1500 SC1770 
Tue 17:00    N 19/ 28  30.0 20.5  1006.8    0.2   0.0   0.0   0.0   10000|SC1350 
Tue 17:30    N 19/ 26  29.6 20.2  1006.5    0.2   0.0   0.0   0.0   10000 
Tue 18:00    N 15/ 24  29.6 20.5  1006.1    0.2   0.0   0.0   0.0   10000|SC1680 BR1980 
Tue 18:00    N 15/ 24  29.6 20.5  1006.1    0.2   0.0  ----   0.0   10000|SC1680 BR1980 
Tue 18:30    N 17/ 24  29.4 20.5  1005.5    0.2   0.0   0.0   0.0   10000|BR1680 
Tue 19:00    N 19/ 24  29.6 21.0  1005.2    0.2   0.0   0.0   0.0   10000|SC1620 BR1950 

NULLO MOUNTAIN AWS

Site: 062100
Alt: 1130.0m
62km ESE of MUDGEE


  Time     Wind        Temp  DP   Baro     Rain since   Rain past  Vis(m), Cloud(base in m), Weather
  local        km/h                         9am  last   hr   10m    
Tue 14:00  WNW 11/ 20  22.5 17.0  ------    0.0   0.0   0.0   0.0   ----- 
Tue 14:30  WNW  9/ 17  23.2 17.7  ------    0.0   0.0   0.0   0.0   ----- 
Tue 15:00   NW 13/ 20  25.1 18.1  ------    0.0   0.0   0.0   0.0   ----- 
Tue 15:30    N 19/ 28  24.6 17.8  ------    0.0   0.0   0.0   0.0   ----- 
Tue 16:00  NNW 15/ 24  24.6 17.3  ------    0.0   0.0   0.0   0.0   ----- 
Tue 16:30  NNW 15/ 30  24.9 17.4  ------    0.0   0.0   0.0   0.0   ----- 
Tue 17:00    N 17/ 26  24.0 17.7  ------    0.0   0.0   0.0   0.0   ----- 
Tue 17:30  NNW 15/ 24  24.5 18.2  ------    0.0   0.0   0.0   0.0   ----- 
Tue 18:00    N 15/ 24  24.1 18.5  ------    0.0   0.0   0.0   0.0   ----- 
Tue 18:00    N 15/ 24  24.1 18.5  ------    0.0   0.0  ----   0.0   ----- 
Tue 18:30    N 13/ 22  23.2 18.3  ------    0.0   0.0   0.0   0.0   ----- 
Tue 19:00    N 15/ 28  23.0 18.3  ------    0.0   0.0   0.0   0.0   -----